createdAt,value
2023-06-10T00:02:46.624Z,20.30
2023-06-10T00:07:49.119Z,20.26
2023-06-10T00:12:50.393Z,20.16
2023-06-10T00:17:53.899Z,20.12
2023-06-10T00:22:55.196Z,20.10
2023-06-10T00:27:56.620Z,20.07
2023-06-10T00:32:57.943Z,20.06
2023-06-10T00:37:59.125Z,19.96
2023-06-10T00:43:00.589Z,19.96
2023-06-10T00:48:01.820Z,19.96
2023-06-10T00:53:03.816Z,19.91
2023-06-10T00:58:05.110Z,19.83
2023-06-10T01:03:09.505Z,19.82
2023-06-10T01:08:11.955Z,19.78
2023-06-10T01:13:13.193Z,19.74
2023-06-10T01:18:16.365Z,19.66
2023-06-10T01:23:17.740Z,19.63
2023-06-10T01:28:18.963Z,19.68
2023-06-10T01:33:20.390Z,19.67
2023-06-10T01:38:22.356Z,19.63
2023-06-10T01:43:23.574Z,19.57
2023-06-10T01:48:24.769Z,19.44
2023-06-10T01:53:26.060Z,19.31
2023-06-10T01:58:27.520Z,19.24
2023-06-10T02:03:28.904Z,19.05
2023-06-10T02:08:30.194Z,18.77
2023-06-10T02:13:31.410Z,18.67
2023-06-10T02:18:32.613Z,18.46
2023-06-10T02:23:33.845Z,18.28
2023-06-10T02:28:35.024Z,18.10
2023-06-10T02:33:36.215Z,17.96
2023-06-10T02:38:37.439Z,17.84
2023-06-10T02:43:38.616Z,17.75
2023-06-10T02:48:39.814Z,17.66
2023-06-10T02:53:41.058Z,17.41
2023-06-10T02:58:42.722Z,17.62
2023-06-10T03:03:44.207Z,17.62
2023-06-10T03:08:46.723Z,17.49
2023-06-10T03:13:47.909Z,17.40
2023-06-10T03:18:49.452Z,17.29
2023-06-10T03:23:50.725Z,17.19
2023-06-10T03:28:51.960Z,17.14
2023-06-10T03:33:53.198Z,17.14
2023-06-10T03:38:54.897Z,17.13
2023-06-10T03:43:56.416Z,17.27
2023-06-10T03:48:57.597Z,17.30
2023-06-10T03:53:58.791Z,17.27
2023-06-10T03:59:00.142Z,17.18
2023-06-10T04:04:02.232Z,17.11
2023-06-10T04:09:04.171Z,17.05
2023-06-10T04:14:05.382Z,17.12
2023-06-10T04:19:06.704Z,17.22
2023-06-10T04:24:08.197Z,17.25
2023-06-10T04:29:09.395Z,17.25
2023-06-10T04:34:10.549Z,17.25
2023-06-10T04:39:11.769Z,17.28
2023-06-10T04:44:13.084Z,17.31
2023-06-10T04:49:15.270Z,17.38
2023-06-10T04:54:16.816Z,17.51
2023-06-10T04:59:17.990Z,17.61
2023-06-10T05:04:19.187Z,17.77
2023-06-10T05:09:20.525Z,17.95
2023-06-10T05:14:21.977Z,18.07
2023-06-10T05:19:23.587Z,18.20
2023-06-10T05:24:24.787Z,18.30
2023-06-10T05:29:26.709Z,18.43
2023-06-10T05:34:27.878Z,18.52
2023-06-10T05:39:29.075Z,18.61
2023-06-10T05:44:30.306Z,18.72
2023-06-10T05:49:31.481Z,18.81
2023-06-10T05:54:32.682Z,18.91
2023-06-10T05:59:33.925Z,19.03
2023-06-10T06:04:35.164Z,19.20
2023-06-10T06:09:36.377Z,19.51
2023-06-10T06:14:37.538Z,19.76
2023-06-10T06:19:38.683Z,19.94
2023-06-10T06:24:40.098Z,19.99
2023-06-10T06:29:41.405Z,19.98
2023-06-10T06:34:43.101Z,20.08
2023-06-10T06:39:44.329Z,20.18
2023-06-10T06:44:45.583Z,20.35
2023-06-10T06:49:46.783Z,20.51
2023-06-10T06:54:48.017Z,20.71
2023-06-10T06:59:49.184Z,20.90
2023-06-10T07:04:50.829Z,21.53
2023-06-10T07:09:52.189Z,21.62
2023-06-10T07:14:53.554Z,21.61
2023-06-10T07:19:58.259Z,21.96
2023-06-10T07:24:59.449Z,22.27
2023-06-10T07:30:02.002Z,22.28
2023-06-10T07:35:03.550Z,22.41
2023-06-10T07:40:04.725Z,22.61
2023-06-10T07:45:05.903Z,22.96
2023-06-10T07:50:07.076Z,23.29
2023-06-10T07:55:08.504Z,23.33
2023-06-10T08:00:09.958Z,23.40
2023-06-10T08:05:11.357Z,23.66
2023-06-10T08:10:12.864Z,23.73
2023-06-10T08:15:14.038Z,24.02
2023-06-10T08:20:15.454Z,24.15
2023-06-10T08:25:16.663Z,24.31
2023-06-10T08:30:19.144Z,24.47
2023-06-10T08:35:20.345Z,24.59
2023-06-10T08:40:22.080Z,24.83
2023-06-10T08:45:23.267Z,25.13
2023-06-10T08:50:24.445Z,25.62
2023-06-10T08:55:28.486Z,26.03
2023-06-10T09:00:31.775Z,26.55
2023-06-10T09:05:32.952Z,26.84
2023-06-10T09:10:34.137Z,27.02
2023-06-10T09:15:35.484Z,27.35
2023-06-10T09:20:36.850Z,27.70
2023-06-10T09:25:38.314Z,28.07
2023-06-10T09:30:39.605Z,28.46
2023-06-10T09:35:40.863Z,29.02
2023-06-10T09:40:42.072Z,29.77
2023-06-10T09:45:44.323Z,30.57
2023-06-10T09:50:45.731Z,30.91
2023-06-10T09:55:46.942Z,31.89
2023-06-10T10:00:48.157Z,32.75
2023-06-10T10:05:49.471Z,31.72
2023-06-10T10:10:50.837Z,30.89
2023-06-10T10:15:52.040Z,32.46
2023-06-10T10:20:53.390Z,33.95
2023-06-10T10:25:54.829Z,33.28
2023-06-10T10:30:56.090Z,31.40
2023-06-10T10:35:57.254Z,30.36
2023-06-10T10:41:00.754Z,29.79
2023-06-10T10:46:02.114Z,32.29
2023-06-10T10:51:03.385Z,32.18
2023-06-10T10:56:04.596Z,31.80
2023-06-10T11:01:05.965Z,30.93
2023-06-10T11:06:09.641Z,31.00
2023-06-10T11:11:10.839Z,30.76
2023-06-10T11:16:12.761Z,30.34
2023-06-10T11:21:14.035Z,29.84
2023-06-10T11:26:15.351Z,29.48
2023-06-10T11:31:16.556Z,29.34
2023-06-10T11:36:17.717Z,29.31
2023-06-10T11:41:18.926Z,29.48
2023-06-10T11:46:20.100Z,29.50
2023-06-10T11:51:21.738Z,29.56
2023-06-10T11:56:23.050Z,30.30
2023-06-10T12:01:29.015Z,32.38
2023-06-10T12:06:30.503Z,33.94
2023-06-10T12:11:31.680Z,34.50
2023-06-10T12:16:32.897Z,34.19
2023-06-10T12:21:34.100Z,34.22
2023-06-10T12:26:35.273Z,33.89
2023-06-10T12:31:36.482Z,32.92
2023-06-10T12:36:37.651Z,32.05
2023-06-10T12:41:39.248Z,31.96
2023-06-10T12:46:40.469Z,30.99
2023-06-10T12:51:41.657Z,30.71
2023-06-10T12:56:42.845Z,30.42
2023-06-10T13:01:44.104Z,30.35
2023-06-10T13:06:45.297Z,31.42
2023-06-10T13:11:46.496Z,32.23
2023-06-10T13:16:47.784Z,32.48
2023-06-10T13:21:48.945Z,32.75
2023-06-10T13:26:50.177Z,31.96
2023-06-10T13:31:51.406Z,31.09
2023-06-10T13:36:52.601Z,30.67
2023-06-10T13:41:53.816Z,30.26
2023-06-10T13:46:54.990Z,30.16
2023-06-10T13:51:56.227Z,30.06
2023-06-10T13:56:57.523Z,30.02
2023-06-10T14:01:59.104Z,30.63
2023-06-10T14:07:00.531Z,31.41
2023-06-10T14:12:01.820Z,31.66
2023-06-10T14:17:04.220Z,32.17
2023-06-10T14:22:08.133Z,32.02
2023-06-10T14:27:09.563Z,32.38
2023-06-10T14:32:10.847Z,32.26
2023-06-10T14:37:13.950Z,32.24
2023-06-10T14:42:15.353Z,31.95
2023-06-10T14:47:16.508Z,32.07
2023-06-10T14:52:17.684Z,32.01
2023-06-10T14:57:18.866Z,31.94
2023-06-10T15:02:20.056Z,31.71
2023-06-10T15:07:21.218Z,31.72
2023-06-10T15:12:22.413Z,31.66
2023-06-10T15:17:23.589Z,31.50
2023-06-10T15:22:24.804Z,31.26
2023-06-10T15:27:25.985Z,31.24
2023-06-10T15:32:27.169Z,31.15
2023-06-10T15:37:28.340Z,31.15
2023-06-10T15:42:29.561Z,31.13
2023-06-10T15:47:30.836Z,31.10
2023-06-10T15:52:32.073Z,31.01
2023-06-10T15:57:33.536Z,30.98
2023-06-10T16:02:37.254Z,30.87
2023-06-10T16:07:39.001Z,30.78
2023-06-10T16:12:40.345Z,30.85
2023-06-10T16:17:41.572Z,30.70
2023-06-10T16:22:42.778Z,30.56
2023-06-10T16:27:43.925Z,30.43
2023-06-10T16:32:45.119Z,30.36
2023-06-10T16:37:46.317Z,30.43
2023-06-10T16:42:47.495Z,30.37
2023-06-10T16:47:48.733Z,30.13
2023-06-10T16:52:49.984Z,30.25
2023-06-10T16:57:51.151Z,30.19
2023-06-10T17:02:52.361Z,29.99
2023-06-10T17:07:53.622Z,29.89
2023-06-10T17:12:54.776Z,29.78
2023-06-10T17:17:56.097Z,29.67
2023-06-10T17:22:57.350Z,29.56
2023-06-10T17:27:58.517Z,29.44
2023-06-10T17:32:59.784Z,29.39
2023-06-10T17:38:01.169Z,29.24
2023-06-10T17:43:02.343Z,29.16
2023-06-10T17:48:03.585Z,29.08
2023-06-10T17:53:04.889Z,28.96
2023-06-10T17:58:06.065Z,28.76
2023-06-10T18:03:07.381Z,28.68
2023-06-10T18:08:08.631Z,28.58
2023-06-10T18:13:10.951Z,28.49
2023-06-10T18:18:12.311Z,28.41
2023-06-10T18:23:13.595Z,28.31
2023-06-10T18:28:14.771Z,28.13
2023-06-10T18:33:15.963Z,27.94
2023-06-10T18:38:17.191Z,27.76
2023-06-10T18:43:18.800Z,27.70
2023-06-10T18:48:20.082Z,27.57
2023-06-10T18:53:21.315Z,27.35
2023-06-10T18:58:22.471Z,27.16
2023-06-10T19:03:23.921Z,26.95
2023-06-10T19:08:25.245Z,26.71
2023-06-10T19:13:28.231Z,26.51
2023-06-10T19:18:29.406Z,26.33
2023-06-10T19:23:30.565Z,26.07
2023-06-10T19:28:31.911Z,25.83
2023-06-10T19:33:33.084Z,25.66
2023-06-10T19:38:34.294Z,25.56
2023-06-10T19:43:35.762Z,25.33
2023-06-10T19:48:36.996Z,25.00
2023-06-10T19:53:38.288Z,24.82
2023-06-10T19:58:39.439Z,24.62
2023-06-10T20:03:40.667Z,24.57
2023-06-10T20:08:41.941Z,24.47
2023-06-10T20:13:43.137Z,24.44
2023-06-10T20:18:44.396Z,24.36
2023-06-10T20:23:45.613Z,24.31
2023-06-10T20:28:46.830Z,24.21
2023-06-10T20:33:47.983Z,24.17
2023-06-10T20:38:49.177Z,24.07
2023-06-10T20:43:50.413Z,24.02
2023-06-10T20:48:51.568Z,23.94
2023-06-10T20:53:52.858Z,23.83
2023-06-10T20:58:54.067Z,23.64
2023-06-10T21:03:55.284Z,23.54
2023-06-10T21:08:57.675Z,23.31
2023-06-10T21:13:58.865Z,23.17
2023-06-10T21:19:00.024Z,23.16
2023-06-10T21:24:01.312Z,22.95
2023-06-10T21:29:02.567Z,22.84
2023-06-10T21:34:03.810Z,22.68
2023-06-10T21:39:05.519Z,22.66
2023-06-10T21:44:07.638Z,22.59
2023-06-10T21:49:08.869Z,22.60
2023-06-10T21:54:10.147Z,22.49
2023-06-10T21:59:11.325Z,22.43
2023-06-10T22:04:12.609Z,22.34
2023-06-10T22:09:13.946Z,22.30
2023-06-10T22:14:15.101Z,22.31
2023-06-10T22:19:16.319Z,22.24
2023-06-10T22:24:17.646Z,22.17
2023-06-10T22:29:19.863Z,22.10
2023-06-10T22:34:21.367Z,22.02
2023-06-10T22:39:22.606Z,21.99
2023-06-10T22:44:23.783Z,21.86
2023-06-10T22:49:24.952Z,21.83
2023-06-10T22:54:29.294Z,21.78
2023-06-10T22:59:30.561Z,21.69
2023-06-10T23:04:31.853Z,21.59
2023-06-10T23:09:33.061Z,21.57
2023-06-10T23:14:34.283Z,21.57
2023-06-10T23:19:41.356Z,21.50
2023-06-10T23:24:45.539Z,21.42
2023-06-10T23:34:53.274Z,21.27
2023-06-10T23:39:55.081Z,21.26
2023-06-10T23:44:56.328Z,21.25
2023-06-10T23:49:57.537Z,21.23
2023-06-10T23:54:59.455Z,21.23
